OOCL Atlanta — VRAR6 — position and weather

sailwx.info

Track history (hours):
 
Tides and Currents Weather Stations Pressure Air Temp Water Temp Dewpoint Dewpoint Depression Visibility Wind Speed Wind Dir Waves Ship Positions

OOCL Atlanta

Last reported at 2014-Jul-20 17:21 UTC. Time now 2014-Jul-28 16:36 UTC.
Position N 24°22' E 119°13'.

Length 323 m; beam 42.8 m; draft 14.5 m.

Type: Cargo ship. MMSI: 477920300.

Date/timePositionNaut miles runAvg speedWind from/ knotsBaromVisibWave heightAir tempDewpointWater temp
2014-Jul-20 17:21N 24°22' E 119°13'3519.4
2014-Jul-20 15:33N 23°58' E 118°45'4019.2
2014-Jul-20 13:28N 23°35' E 118°09'1819.3
2014-Jul-20 12:33N 23°26' E 117°52'6119.9
2014-Jul-20 09:31N 22°52' E 116°58'14817.6
2014-Jul-20 01:08N 22°33' E 114°20'4 5.9
2014-Jul-20 00:33N 22°34' E 114°16'0 0.1
2014-Jul-19 23:29N 22°34' E 114°16'0 0.0
2014-Jul-19 22:23N 22°34' E 114°16'0 0.1
2014-Jul-19 21:29N 22°34' E 114°16'0 0.0
2014-Jul-19 20:11N 22°34' E 114°16'0 0.1
2014-Jul-19 19:29N 22°34' E 114°16'0 0.1
2014-Jul-19 18:23N 22°34' E 114°16'0 0.1
2014-Jul-19 17:29N 22°34' E 114°16'0 0.0
2014-Jul-19 16:29N 22°34' E 114°16'0 0.1
2014-Jul-19 15:29N 22°34' E 114°16'0 0.1
2014-Jul-19 14:29N 22°34' E 114°16'0 0.0
2014-Jul-19 13:23N 22°34' E 114°16'0 0.0
2014-Jul-19 11:29N 22°34' E 114°16'0 0.0
2014-Jul-19 10:17N 22°34' E 114°16'0 0.1
2014-Jul-19 09:23N 22°34' E 114°16'0 0.0
2014-Jul-19 08:29N 22°34' E 114°16'0 0.0
2014-Jul-19 07:29N 22°34' E 114°16'0 0.0
2014-Jul-19 06:23N 22°34' E 114°16'0 0.6
2014-Jul-19 05:33N 22°34' E 114°16'20 1.4
2014-Jul-18 15:33N 22°16' E 114°07'4 0.5
2014-Jul-18 08:33N 22°19' E 114°07'10 7.4
2014-Jul-18 07:10N 22°11' E 114°12'1 0.1
2014-Jul-17 18:33N 22°09' E 114°12'11 7.3
2014-Jul-17 17:06N 22°18' E 114°06'1 2.7
2014-Jul-17 16:34N 22°19' E 114°06'1 0.0
2014-Jul-16 15:32N 22°20' E 114°07'4 4.0
2014-Jul-16 14:28N 22°21' E 114°03'910.2
2014-Jul-16 13:33N 22°24' E 113°53'8 7.6
2014-Jul-16 12:33N 22°32' E 113°51'1 0.2
2014-Jul-16 10:10N 22°32' E 113°51'0 0.0
2014-Jul-16 09:22N 22°32' E 113°51'0 0.1
2014-Jul-16 08:28N 22°32' E 113°51'0 0.0
2014-Jul-16 07:22N 22°32' E 113°51'0 0.0
2014-Jul-16 06:22N 22°32' E 113°51'0 0.0
2014-Jul-16 05:28N 22°32' E 113°51'0 0.0
2014-Jul-16 04:22N 22°32' E 113°51'0 0.0
2014-Jul-16 03:22N 22°32' E 113°51'0 0.0
2014-Jul-16 01:16N 22°32' E 113°51'0 0.0
2014-Jul-16 00:28N 22°32' E 113°51'0 0.0
2014-Jul-15 23:28N 22°32' E 113°51'0 0.1
2014-Jul-15 22:30N 22°32' E 113°51'0 0.0
2014-Jul-15 21:17N 22°32' E 113°51'0 0.0
2014-Jul-15 20:29N 22°32' E 113°51'0 0.0
2014-Jul-15 18:05N 22°32' E 113°51'2 3.8
2014-Jul-15 17:28N 22°30' E 113°51'  
Track history (hours):
 
Tides and Currents Weather Stations Pressure Air Temp Water Temp Dewpoint Dewpoint Depression Visibility Wind Speed Wind Dir Waves Ship Positions

OOCL Atlanta

Last reported at 2014-Jul-20 17:21 UTC. Time now 2014-Jul-28 16:36 UTC.
Position N 24°22' E 119°13'.

Length 323 m; beam 42.8 m; draft 14.5 m.

Type: Cargo ship. MMSI: 477920300.

Date/timePositionNaut miles runAvg speedWind from/ knotsBaromVisibWave heightAir tempDewpointWater temp
2014-Jul-20 17:21N 24°22' E 119°13'3519.4
2014-Jul-20 15:33N 23°58' E 118°45'4019.2
2014-Jul-20 13:28N 23°35' E 118°09'1819.3
2014-Jul-20 12:33N 23°26' E 117°52'6119.9
2014-Jul-20 09:31N 22°52' E 116°58'14817.6
2014-Jul-20 01:08N 22°33' E 114°20'4 5.9
2014-Jul-20 00:33N 22°34' E 114°16'0 0.1
2014-Jul-19 23:29N 22°34' E 114°16'0 0.0
2014-Jul-19 22:23N 22°34' E 114°16'0 0.1
2014-Jul-19 21:29N 22°34' E 114°16'0 0.0
2014-Jul-19 20:11N 22°34' E 114°16'0 0.1
2014-Jul-19 19:29N 22°34' E 114°16'0 0.1
2014-Jul-19 18:23N 22°34' E 114°16'0 0.1
2014-Jul-19 17:29N 22°34' E 114°16'0 0.0
2014-Jul-19 16:29N 22°34' E 114°16'0 0.1
2014-Jul-19 15:29N 22°34' E 114°16'0 0.1
2014-Jul-19 14:29N 22°34' E 114°16'0 0.0
2014-Jul-19 13:23N 22°34' E 114°16'0 0.0
2014-Jul-19 11:29N 22°34' E 114°16'0 0.0
2014-Jul-19 10:17N 22°34' E 114°16'0 0.1
2014-Jul-19 09:23N 22°34' E 114°16'0 0.0
2014-Jul-19 08:29N 22°34' E 114°16'0 0.0
2014-Jul-19 07:29N 22°34' E 114°16'0 0.0
2014-Jul-19 06:23N 22°34' E 114°16'0 0.6
2014-Jul-19 05:33N 22°34' E 114°16'20 1.4
2014-Jul-18 15:33N 22°16' E 114°07'4 0.5
2014-Jul-18 08:33N 22°19' E 114°07'10 7.4
2014-Jul-18 07:10N 22°11' E 114°12'1 0.1
2014-Jul-17 18:33N 22°09' E 114°12'11 7.3
2014-Jul-17 17:06N 22°18' E 114°06'1 2.7
2014-Jul-17 16:34N 22°19' E 114°06'1 0.0
2014-Jul-16 15:32N 22°20' E 114°07'4 4.0
2014-Jul-16 14:28N 22°21' E 114°03'910.2
2014-Jul-16 13:33N 22°24' E 113°53'8 7.6
2014-Jul-16 12:33N 22°32' E 113°51'1 0.2
2014-Jul-16 10:10N 22°32' E 113°51'0 0.0
2014-Jul-16 09:22N 22°32' E 113°51'0 0.1
2014-Jul-16 08:28N 22°32' E 113°51'0 0.0
2014-Jul-16 07:22N 22°32' E 113°51'0 0.0
2014-Jul-16 06:22N 22°32' E 113°51'0 0.0
2014-Jul-16 05:28N 22°32' E 113°51'0 0.0
2014-Jul-16 04:22N 22°32' E 113°51'0 0.0
2014-Jul-16 03:22N 22°32' E 113°51'0 0.0
2014-Jul-16 01:16N 22°32' E 113°51'0 0.0
2014-Jul-16 00:28N 22°32' E 113°51'0 0.0
2014-Jul-15 23:28N 22°32' E 113°51'0 0.1
2014-Jul-15 22:30N 22°32' E 113°51'0 0.0
2014-Jul-15 21:17N 22°32' E 113°51'0 0.0
2014-Jul-15 20:29N 22°32' E 113°51'0 0.0
2014-Jul-15 18:05N 22°32' E 113°51'2 3.8
2014-Jul-15 17:28N 22°30' E 113°51'  

Dump ship's entire track history